sensor_id;sensor_type;location;lat;lon;timestamp;temperature;humidity
65404;DHT22;52014;52.088;5.096;2023-04-15T00:00:38;10.60;99.90
65404;DHT22;52014;52.088;5.096;2023-04-15T00:03:03;10.50;99.90
65404;DHT22;52014;52.088;5.096;2023-04-15T00:05:30;10.50;99.90
65404;DHT22;52014;52.088;5.096;2023-04-15T00:07:56;10.60;99.90
65404;DHT22;52014;52.088;5.096;2023-04-15T00:10:21;10.50;99.90
65404;DHT22;52014;52.088;5.096;2023-04-15T00:12:46;10.50;99.90
65404;DHT22;52014;52.088;5.096;2023-04-15T00:15:12;10.50;99.90
65404;DHT22;52014;52.088;5.096;2023-04-15T00:17:37;10.50;99.90
65404;DHT22;52014;52.088;5.096;2023-04-15T00:20:04;10.40;99.90
65404;DHT22;52014;52.088;5.096;2023-04-15T00:22:30;10.50;99.90
65404;DHT22;52014;52.088;5.096;2023-04-15T00:24:56;10.40;99.90
65404;DHT22;52014;52.088;5.096;2023-04-15T00:27:22;10.40;99.90
65404;DHT22;52014;52.088;5.096;2023-04-15T00:29:48;10.40;99.90
65404;DHT22;52014;52.088;5.096;2023-04-15T00:32:13;10.40;99.90
65404;DHT22;52014;52.088;5.096;2023-04-15T00:34:39;10.40;99.90
65404;DHT22;52014;52.088;5.096;2023-04-15T00:37:05;10.30;99.90
65404;DHT22;52014;52.088;5.096;2023-04-15T00:39:30;10.30;99.90
65404;DHT22;52014;52.088;5.096;2023-04-15T00:41:56;10.30;99.90
65404;DHT22;52014;52.088;5.096;2023-04-15T00:44:21;10.30;99.90
65404;DHT22;52014;52.088;5.096;2023-04-15T00:46:47;10.30;99.90
65404;DHT22;52014;52.088;5.096;2023-04-15T00:49:15;10.30;99.90
65404;DHT22;52014;52.088;5.096;2023-04-15T00:51:40;10.30;99.90
65404;DHT22;52014;52.088;5.096;2023-04-15T00:54:06;10.20;99.90
65404;DHT22;52014;52.088;5.096;2023-04-15T00:56:34;10.20;99.90
65404;DHT22;52014;52.088;5.096;2023-04-15T00:59:00;10.20;99.90
65404;DHT22;52014;52.088;5.096;2023-04-15T01:01:26;10.20;99.90
65404;DHT22;52014;52.088;5.096;2023-04-15T01:03:54;10.20;99.90
65404;DHT22;52014;52.088;5.096;2023-04-15T01:06:19;10.20;99.90
65404;DHT22;52014;52.088;5.096;2023-04-15T01:08:45;10.20;99.90
65404;DHT22;52014;52.088;5.096;2023-04-15T01:11:11;10.10;99.90
65404;DHT22;52014;52.088;5.096;2023-04-15T01:13:36;10.10;99.90
65404;DHT22;52014;52.088;5.096;2023-04-15T01:16:02;10.10;99.90
65404;DHT22;52014;52.088;5.096;2023-04-15T01:18:28;10.10;99.90
65404;DHT22;52014;52.088;5.096;2023-04-15T01:20:53;10.10;99.90
65404;DHT22;52014;52.088;5.096;2023-04-15T01:23:20;10.00;99.90
65404;DHT22;52014;52.088;5.096;2023-04-15T01:25:46;10.00;99.90
65404;DHT22;52014;52.088;5.096;2023-04-15T01:28:12;10.00;99.90
65404;DHT22;52014;52.088;5.096;2023-04-15T01:30:37;10.00;99.90
65404;DHT22;52014;52.088;5.096;2023-04-15T01:33:03;9.90;99.90
65404;DHT22;52014;52.088;5.096;2023-04-15T01:35:28;9.90;99.90
65404;DHT22;52014;52.088;5.096;2023-04-15T01:37:54;9.90;99.90
65404;DHT22;52014;52.088;5.096;2023-04-15T01:40:21;9.90;99.90
65404;DHT22;52014;52.088;5.096;2023-04-15T01:42:47;9.90;99.90
65404;DHT22;52014;52.088;5.096;2023-04-15T01:45:12;9.80;99.90
65404;DHT22;52014;52.088;5.096;2023-04-15T01:47:38;9.80;99.90
65404;DHT22;52014;52.088;5.096;2023-04-15T01:50:04;9.80;99.90
65404;DHT22;52014;52.088;5.096;2023-04-15T01:52:29;9.90;99.90
65404;DHT22;52014;52.088;5.096;2023-04-15T01:54:55;9.80;99.90
65404;DHT22;52014;52.088;5.096;2023-04-15T01:57:20;9.80;99.90
65404;DHT22;52014;52.088;5.096;2023-04-15T01:59:46;9.80;99.90
65404;DHT22;52014;52.088;5.096;2023-04-15T02:02:11;9.80;99.90
65404;DHT22;52014;52.088;5.096;2023-04-15T02:04:37;9.80;99.90
65404;DHT22;52014;52.088;5.096;2023-04-15T02:07:02;9.80;99.90
65404;DHT22;52014;52.088;5.096;2023-04-15T02:09:27;9.80;99.90
65404;DHT22;52014;52.088;5.096;2023-04-15T02:11:53;9.70;99.90
65404;DHT22;52014;52.088;5.096;2023-04-15T02:14:18;9.70;99.90
65404;DHT22;52014;52.088;5.096;2023-04-15T02:16:44;9.70;99.90
65404;DHT22;52014;52.088;5.096;2023-04-15T02:19:09;9.70;99.90
65404;DHT22;52014;52.088;5.096;2023-04-15T02:21:35;9.70;99.90
65404;DHT22;52014;52.088;5.096;2023-04-15T02:24:00;9.70;99.90
65404;DHT22;52014;52.088;5.096;2023-04-15T02:26:26;9.60;99.90
65404;DHT22;52014;52.088;5.096;2023-04-15T02:28:52;9.60;99.90
65404;DHT22;52014;52.088;5.096;2023-04-15T02:31:17;9.60;99.90
65404;DHT22;52014;52.088;5.096;2023-04-15T02:33:43;9.60;99.90
65404;DHT22;52014;52.088;5.096;2023-04-15T02:36:08;9.60;99.90
65404;DHT22;52014;52.088;5.096;2023-04-15T02:38:35;9.50;99.90
65404;DHT22;52014;52.088;5.096;2023-04-15T02:41:02;9.60;99.90
65404;DHT22;52014;52.088;5.096;2023-04-15T02:43:27;9.60;99.90
65404;DHT22;52014;52.088;5.096;2023-04-15T02:45:53;9.50;99.90
65404;DHT22;52014;52.088;5.096;2023-04-15T02:48:18;9.50;99.90
65404;DHT22;52014;52.088;5.096;2023-04-15T02:50:45;9.50;99.90
65404;DHT22;52014;52.088;5.096;2023-04-15T02:53:10;9.50;99.90
65404;DHT22;52014;52.088;5.096;2023-04-15T02:55:37;9.50;99.90
65404;DHT22;52014;52.088;5.096;2023-04-15T02:58:03;9.50;99.90
65404;DHT22;52014;52.088;5.096;2023-04-15T03:00:28;9.50;99.90
65404;DHT22;52014;52.088;5.096;2023-04-15T03:02:57;9.40;99.90
65404;DHT22;52014;52.088;5.096;2023-04-15T03:05:23;9.30;99.90
65404;DHT22;52014;52.088;5.096;2023-04-15T03:07:50;9.30;99.90
65404;DHT22;52014;52.088;5.096;2023-04-15T03:10:15;9.30;99.90
65404;DHT22;52014;52.088;5.096;2023-04-15T03:12:41;9.30;99.90
65404;DHT22;52014;52.088;5.096;2023-04-15T03:15:06;9.30;99.90
65404;DHT22;52014;52.088;5.096;2023-04-15T03:17:32;9.30;99.90
65404;DHT22;52014;52.088;5.096;2023-04-15T03:19:58;9.20;99.90
65404;DHT22;52014;52.088;5.096;2023-04-15T03:22:23;9.20;99.90
65404;DHT22;52014;52.088;5.096;2023-04-15T03:24:49;9.20;99.90
65404;DHT22;52014;52.088;5.096;2023-04-15T03:27:14;9.20;99.90
65404;DHT22;52014;52.088;5.096;2023-04-15T03:29:40;9.10;99.90
65404;DHT22;52014;52.088;5.096;2023-04-15T03:32:05;9.10;99.90
65404;DHT22;52014;52.088;5.096;2023-04-15T03:34:31;9.10;99.90
65404;DHT22;52014;52.088;5.096;2023-04-15T03:36:56;9.00;99.90
65404;DHT22;52014;52.088;5.096;2023-04-15T03:39:22;9.00;99.90
65404;DHT22;52014;52.088;5.096;2023-04-15T03:41:47;9.00;99.90
65404;DHT22;52014;52.088;5.096;2023-04-15T03:44:13;9.00;99.90
65404;DHT22;52014;52.088;5.096;2023-04-15T03:46:38;9.00;99.90
65404;DHT22;52014;52.088;5.096;2023-04-15T03:49:05;8.90;99.90
65404;DHT22;52014;52.088;5.096;2023-04-15T03:51:31;8.90;99.90
65404;DHT22;52014;52.088;5.096;2023-04-15T03:53:56;8.90;99.90
65404;DHT22;52014;52.088;5.096;2023-04-15T03:56:23;8.90;99.90
65404;DHT22;52014;52.088;5.096;2023-04-15T03:58:48;8.90;99.90
65404;DHT22;52014;52.088;5.096;2023-04-15T04:01:14;8.90;99.90
65404;DHT22;52014;52.088;5.096;2023-04-15T04:03:39;8.80;99.90
65404;DHT22;52014;52.088;5.096;2023-04-15T04:06:05;8.80;99.90
65404;DHT22;52014;52.088;5.096;2023-04-15T04:08:30;8.80;99.90
65404;DHT22;52014;52.088;5.096;2023-04-15T04:10:56;8.80;99.90
65404;DHT22;52014;52.088;5.096;2023-04-15T04:13:22;8.80;99.90
65404;DHT22;52014;52.088;5.096;2023-04-15T04:15:47;8.90;99.90
65404;DHT22;52014;52.088;5.096;2023-04-15T04:18:13;8.80;99.90
65404;DHT22;52014;52.088;5.096;2023-04-15T04:20:38;8.70;99.90
65404;DHT22;52014;52.088;5.096;2023-04-15T04:23:03;8.70;99.90
65404;DHT22;52014;52.088;5.096;2023-04-15T04:25:29;8.70;99.90
65404;DHT22;52014;52.088;5.096;2023-04-15T04:27:55;8.70;99.90
65404;DHT22;52014;52.088;5.096;2023-04-15T04:30:20;8.70;99.90
65404;DHT22;52014;52.088;5.096;2023-04-15T04:32:46;8.70;99.90
65404;DHT22;52014;52.088;5.096;2023-04-15T04:35:11;8.60;99.90
65404;DHT22;52014;52.088;5.096;2023-04-15T04:37:37;8.60;99.90
65404;DHT22;52014;52.088;5.096;2023-04-15T04:40:02;8.50;99.90
65404;DHT22;52014;52.088;5.096;2023-04-15T04:42:28;8.50;99.90
65404;DHT22;52014;52.088;5.096;2023-04-15T04:44:54;8.50;99.90
65404;DHT22;52014;52.088;5.096;2023-04-15T04:47:19;8.50;99.90
65404;DHT22;52014;52.088;5.096;2023-04-15T04:49:45;8.40;99.90
65404;DHT22;52014;52.088;5.096;2023-04-15T04:52:10;8.40;99.90
65404;DHT22;52014;52.088;5.096;2023-04-15T04:54:36;8.50;99.90
65404;DHT22;52014;52.088;5.096;2023-04-15T04:57:02;8.40;99.90
65404;DHT22;52014;52.088;5.096;2023-04-15T04:59:27;8.40;99.90
65404;DHT22;52014;52.088;5.096;2023-04-15T05:01:53;8.40;99.90
65404;DHT22;52014;52.088;5.096;2023-04-15T05:04:18;8.30;99.90
65404;DHT22;52014;52.088;5.096;2023-04-15T05:06:43;8.40;99.90
65404;DHT22;52014;52.088;5.096;2023-04-15T05:09:09;8.40;99.90
65404;DHT22;52014;52.088;5.096;2023-04-15T05:11:34;8.40;99.90
65404;DHT22;52014;52.088;5.096;2023-04-15T05:14:00;8.40;99.90
65404;DHT22;52014;52.088;5.096;2023-04-15T05:16:26;8.40;99.90
65404;DHT22;52014;52.088;5.096;2023-04-15T05:18:52;8.40;99.90
65404;DHT22;52014;52.088;5.096;2023-04-15T05:21:17;8.40;99.90
65404;DHT22;52014;52.088;5.096;2023-04-15T05:23:42;8.40;99.90
65404;DHT22;52014;52.088;5.096;2023-04-15T05:26:08;8.40;99.90
65404;DHT22;52014;52.088;5.096;2023-04-15T05:28:33;8.40;99.90
65404;DHT22;52014;52.088;5.096;2023-04-15T05:30:59;8.40;99.90
65404;DHT22;52014;52.088;5.096;2023-04-15T05:33:24;8.50;99.90
65404;DHT22;52014;52.088;5.096;2023-04-15T05:35:50;8.40;99.90
65404;DHT22;52014;52.088;5.096;2023-04-15T05:38:16;8.40;99.90
65404;DHT22;52014;52.088;5.096;2023-04-15T05:40:41;8.50;99.90
65404;DHT22;52014;52.088;5.096;2023-04-15T05:43:06;8.60;99.90
65404;DHT22;52014;52.088;5.096;2023-04-15T05:45:32;8.80;99.90
65404;DHT22;52014;52.088;5.096;2023-04-15T05:47:57;8.90;99.90
65404;DHT22;52014;52.088;5.096;2023-04-15T05:50:23;9.10;99.90
65404;DHT22;52014;52.088;5.096;2023-04-15T05:52:48;9.40;99.90
65404;DHT22;52014;52.088;5.096;2023-04-15T05:55:14;9.40;99.90
65404;DHT22;52014;52.088;5.096;2023-04-15T05:57:40;10.00;99.90
65404;DHT22;52014;52.088;5.096;2023-04-15T06:00:05;10.50;99.90
65404;DHT22;52014;52.088;5.096;2023-04-15T06:02:31;10.70;99.90
65404;DHT22;52014;52.088;5.096;2023-04-15T06:04:56;11.80;99.90
65404;DHT22;52014;52.088;5.096;2023-04-15T06:07:22;11.90;99.90
65404;DHT22;52014;52.088;5.096;2023-04-15T06:09:48;10.50;99.90
65404;DHT22;52014;52.088;5.096;2023-04-15T06:12:14;12.10;99.90
65404;DHT22;52014;52.088;5.096;2023-04-15T06:14:39;12.80;99.90
65404;DHT22;52014;52.088;5.096;2023-04-15T06:17:06;12.30;99.90
65404;DHT22;52014;52.088;5.096;2023-04-15T06:19:32;13.00;99.90
65404;DHT22;52014;52.088;5.096;2023-04-15T06:21:58;13.00;99.90
65404;DHT22;52014;52.088;5.096;2023-04-15T06:24:24;12.50;99.90
65404;DHT22;52014;52.088;5.096;2023-04-15T06:26:49;11.60;99.90
65404;DHT22;52014;52.088;5.096;2023-04-15T06:29:15;10.80;99.90
65404;DHT22;52014;52.088;5.096;2023-04-15T06:31:40;10.50;99.90
65404;DHT22;52014;52.088;5.096;2023-04-15T06:34:06;10.40;99.90
65404;DHT22;52014;52.088;5.096;2023-04-15T06:36:32;10.30;99.90
65404;DHT22;52014;52.088;5.096;2023-04-15T06:38:57;10.40;99.90
65404;DHT22;52014;52.088;5.096;2023-04-15T06:41:23;10.50;99.90
65404;DHT22;52014;52.088;5.096;2023-04-15T06:43:48;10.50;99.90
65404;DHT22;52014;52.088;5.096;2023-04-15T06:46:14;10.60;99.90
65404;DHT22;52014;52.088;5.096;2023-04-15T06:48:39;10.70;99.90
65404;DHT22;52014;52.088;5.096;2023-04-15T06:51:05;10.70;99.90
65404;DHT22;52014;52.088;5.096;2023-04-15T06:53:30;10.80;99.90
65404;DHT22;52014;52.088;5.096;2023-04-15T06:55:56;10.90;99.90
65404;DHT22;52014;52.088;5.096;2023-04-15T06:58:21;11.10;99.90
65404;DHT22;52014;52.088;5.096;2023-04-15T07:00:47;11.20;99.90
65404;DHT22;52014;52.088;5.096;2023-04-15T07:03:12;11.30;99.90
65404;DHT22;52014;52.088;5.096;2023-04-15T07:05:39;11.40;99.90
65404;DHT22;52014;52.088;5.096;2023-04-15T07:08:05;11.60;99.90
65404;DHT22;52014;52.088;5.096;2023-04-15T07:10:31;11.60;99.90
65404;DHT22;52014;52.088;5.096;2023-04-15T07:12:57;11.70;99.90
65404;DHT22;52014;52.088;5.096;2023-04-15T07:15:22;11.90;99.90
65404;DHT22;52014;52.088;5.096;2023-04-15T07:17:48;12.00;99.90
65404;DHT22;52014;52.088;5.096;2023-04-15T07:20:13;12.00;99.90
65404;DHT22;52014;52.088;5.096;2023-04-15T07:22:39;12.10;99.90
65404;DHT22;52014;52.088;5.096;2023-04-15T07:25:05;12.20;99.90
65404;DHT22;52014;52.088;5.096;2023-04-15T07:27:30;12.30;99.90
65404;DHT22;52014;52.088;5.096;2023-04-15T07:29:56;12.40;99.90
65404;DHT22;52014;52.088;5.096;2023-04-15T07:32:22;12.40;99.90
65404;DHT22;52014;52.088;5.096;2023-04-15T07:34:48;12.50;99.90
65404;DHT22;52014;52.088;5.096;2023-04-15T07:37:13;12.60;99.90
65404;DHT22;52014;52.088;5.096;2023-04-15T07:39:39;12.70;99.90
65404;DHT22;52014;52.088;5.096;2023-04-15T07:42:04;12.80;99.90
65404;DHT22;52014;52.088;5.096;2023-04-15T07:44:29;12.80;99.90
65404;DHT22;52014;52.088;5.096;2023-04-15T07:46:55;12.90;99.90
65404;DHT22;52014;52.088;5.096;2023-04-15T07:49:21;12.90;99.90
65404;DHT22;52014;52.088;5.096;2023-04-15T07:51:47;12.90;99.90
65404;DHT22;52014;52.088;5.096;2023-04-15T07:54:13;12.90;99.90
65404;DHT22;52014;52.088;5.096;2023-04-15T07:56:38;13.10;99.90
65404;DHT22;52014;52.088;5.096;2023-04-15T07:59:04;13.10;99.90
65404;DHT22;52014;52.088;5.096;2023-04-15T08:01:30;13.20;99.90
65404;DHT22;52014;52.088;5.096;2023-04-15T08:03:57;13.20;99.90
65404;DHT22;52014;52.088;5.096;2023-04-15T08:06:23;13.40;99.90
65404;DHT22;52014;52.088;5.096;2023-04-15T08:08:48;13.50;99.90
65404;DHT22;52014;52.088;5.096;2023-04-15T08:11:14;13.70;99.90
65404;DHT22;52014;52.088;5.096;2023-04-15T08:13:39;13.60;99.90
65404;DHT22;52014;52.088;5.096;2023-04-15T08:16:21;13.70;99.90
65404;DHT22;52014;52.088;5.096;2023-04-15T08:18:47;13.90;99.90
65404;DHT22;52014;52.088;5.096;2023-04-15T08:21:13;14.00;99.90
65404;DHT22;52014;52.088;5.096;2023-04-15T08:23:39;14.00;99.90
65404;DHT22;52014;52.088;5.096;2023-04-15T08:26:05;14.10;99.90
65404;DHT22;52014;52.088;5.096;2023-04-15T08:28:30;14.10;99.90
65404;DHT22;52014;52.088;5.096;2023-04-15T08:30:56;14.30;99.90
65404;DHT22;52014;52.088;5.096;2023-04-15T08:33:21;14.30;99.90
65404;DHT22;52014;52.088;5.096;2023-04-15T08:35:47;14.30;99.90
65404;DHT22;52014;52.088;5.096;2023-04-15T08:38:13;14.50;99.90
65404;DHT22;52014;52.088;5.096;2023-04-15T08:40:41;14.50;99.90
65404;DHT22;52014;52.088;5.096;2023-04-15T08:43:08;14.60;99.90
65404;DHT22;52014;52.088;5.096;2023-04-15T08:45:34;14.50;99.90
65404;DHT22;52014;52.088;5.096;2023-04-15T08:48:02;14.60;99.90
65404;DHT22;52014;52.088;5.096;2023-04-15T08:50:29;14.60;99.90
65404;DHT22;52014;52.088;5.096;2023-04-15T08:52:56;14.60;99.90
65404;DHT22;52014;52.088;5.096;2023-04-15T08:55:23;14.80;99.90
65404;DHT22;52014;52.088;5.096;2023-04-15T08:57:49;14.70;99.90
65404;DHT22;52014;52.088;5.096;2023-04-15T09:00:15;14.50;99.90
65404;DHT22;52014;52.088;5.096;2023-04-15T09:02:41;14.60;99.90
65404;DHT22;52014;52.088;5.096;2023-04-15T09:05:07;14.70;99.90
65404;DHT22;52014;52.088;5.096;2023-04-15T09:07:33;14.70;99.90
65404;DHT22;52014;52.088;5.096;2023-04-15T09:09:59;14.60;99.90
65404;DHT22;52014;52.088;5.096;2023-04-15T09:12:25;14.60;99.90
65404;DHT22;52014;52.088;5.096;2023-04-15T09:14:51;14.60;99.90
65404;DHT22;52014;52.088;5.096;2023-04-15T09:17:17;14.70;99.90
65404;DHT22;52014;52.088;5.096;2023-04-15T09:19:43;14.80;99.90
65404;DHT22;52014;52.088;5.096;2023-04-15T09:22:08;14.80;99.90
65404;DHT22;52014;52.088;5.096;2023-04-15T09:24:37;14.80;99.90
65404;DHT22;52014;52.088;5.096;2023-04-15T09:27:03;14.80;99.90
65404;DHT22;52014;52.088;5.096;2023-04-15T09:29:29;14.90;99.90
65404;DHT22;52014;52.088;5.096;2023-04-15T09:31:54;15.00;99.90
65404;DHT22;52014;52.088;5.096;2023-04-15T09:34:19;14.80;99.90
65404;DHT22;52014;52.088;5.096;2023-04-15T09:39:11;15.10;99.90
65404;DHT22;52014;52.088;5.096;2023-04-15T09:41:36;15.10;99.90
65404;DHT22;52014;52.088;5.096;2023-04-15T09:44:02;14.90;99.90
65404;DHT22;52014;52.088;5.096;2023-04-15T09:46:40;15.00;99.90
65404;DHT22;52014;52.088;5.096;2023-04-15T09:49:07;15.10;99.90
65404;DHT22;52014;52.088;5.096;2023-04-15T09:51:35;14.90;99.90
65404;DHT22;52014;52.088;5.096;2023-04-15T09:54:01;15.10;99.90
65404;DHT22;52014;52.088;5.096;2023-04-15T09:56:34;15.30;99.90
65404;DHT22;52014;52.088;5.096;2023-04-15T09:59:01;15.40;99.90
65404;DHT22;52014;52.088;5.096;2023-04-15T10:01:27;15.30;99.90
65404;DHT22;52014;52.088;5.096;2023-04-15T10:03:52;15.00;99.90
65404;DHT22;52014;52.088;5.096;2023-04-15T10:06:21;15.00;99.90
65404;DHT22;52014;52.088;5.096;2023-04-15T10:08:47;15.00;99.90
65404;DHT22;52014;52.088;5.096;2023-04-15T10:11:13;14.90;99.90
65404;DHT22;52014;52.088;5.096;2023-04-15T10:13:38;15.10;99.90
65404;DHT22;52014;52.088;5.096;2023-04-15T10:16:05;15.00;99.90
65404;DHT22;52014;52.088;5.096;2023-04-15T10:18:31;15.10;99.90
65404;DHT22;52014;52.088;5.096;2023-04-15T10:20:59;15.10;99.90
65404;DHT22;52014;52.088;5.096;2023-04-15T10:23:24;15.00;99.90
65404;DHT22;52014;52.088;5.096;2023-04-15T10:25:51;14.90;99.90
65404;DHT22;52014;52.088;5.096;2023-04-15T10:28:16;14.90;99.90
65404;DHT22;52014;52.088;5.096;2023-04-15T10:30:42;15.00;99.90
65404;DHT22;52014;52.088;5.096;2023-04-15T10:33:08;15.00;99.90
65404;DHT22;52014;52.088;5.096;2023-04-15T10:35:34;14.80;99.90
65404;DHT22;52014;52.088;5.096;2023-04-15T10:38:00;14.90;99.90
65404;DHT22;52014;52.088;5.096;2023-04-15T10:40:30;15.10;99.90
65404;DHT22;52014;52.088;5.096;2023-04-15T10:42:59;15.10;99.90
65404;DHT22;52014;52.088;5.096;2023-04-15T10:45:26;15.20;99.90
65404;DHT22;52014;52.088;5.096;2023-04-15T10:47:55;15.20;99.90
65404;DHT22;52014;52.088;5.096;2023-04-15T10:50:21;15.30;99.90
65404;DHT22;52014;52.088;5.096;2023-04-15T10:52:49;15.20;99.90
65404;DHT22;52014;52.088;5.096;2023-04-15T10:55:17;15.40;99.90
65404;DHT22;52014;52.088;5.096;2023-04-15T10:57:43;15.30;99.90
65404;DHT22;52014;52.088;5.096;2023-04-15T11:00:12;15.20;99.90
65404;DHT22;52014;52.088;5.096;2023-04-15T11:05:06;14.90;99.90
65404;DHT22;52014;52.088;5.096;2023-04-15T11:07:48;14.90;99.90
65404;DHT22;52014;52.088;5.096;2023-04-15T11:12:42;15.00;99.90
65404;DHT22;52014;52.088;5.096;2023-04-15T11:17:53;15.00;99.90
65404;DHT22;52014;52.088;5.096;2023-04-15T11:20:18;14.90;99.90
65404;DHT22;52014;52.088;5.096;2023-04-15T11:22:47;14.70;99.90
65404;DHT22;52014;52.088;5.096;2023-04-15T11:25:25;14.80;99.90
65404;DHT22;52014;52.088;5.096;2023-04-15T11:27:52;14.80;99.90
65404;DHT22;52014;52.088;5.096;2023-04-15T11:30:19;14.70;99.90
65404;DHT22;52014;52.088;5.096;2023-04-15T11:32:48;14.70;99.90
65404;DHT22;52014;52.088;5.096;2023-04-15T11:35:15;14.90;99.90
65404;DHT22;52014;52.088;5.096;2023-04-15T11:37:40;14.80;99.90
65404;DHT22;52014;52.088;5.096;2023-04-15T11:40:06;14.90;99.90
65404;DHT22;52014;52.088;5.096;2023-04-15T11:42:32;14.90;99.90
65404;DHT22;52014;52.088;5.096;2023-04-15T11:45:07;14.90;99.90
65404;DHT22;52014;52.088;5.096;2023-04-15T11:47:34;14.90;99.90
65404;DHT22;52014;52.088;5.096;2023-04-15T11:50:18;14.80;99.90
65404;DHT22;52014;52.088;5.096;2023-04-15T11:52:56;14.70;99.90
65404;DHT22;52014;52.088;5.096;2023-04-15T11:55:22;14.60;99.90
65404;DHT22;52014;52.088;5.096;2023-04-15T12:00:32;14.60;99.90
65404;DHT22;52014;52.088;5.096;2023-04-15T12:08:25;14.60;99.90
65404;DHT22;52014;52.088;5.096;2023-04-15T12:10:54;14.60;99.90
65404;DHT22;52014;52.088;5.096;2023-04-15T12:13:23;14.50;99.90
65404;DHT22;52014;52.088;5.096;2023-04-15T12:15:48;14.50;99.90
65404;DHT22;52014;52.088;5.096;2023-04-15T12:18:18;14.40;99.90
65404;DHT22;52014;52.088;5.096;2023-04-15T12:20:44;14.40;99.90
65404;DHT22;52014;52.088;5.096;2023-04-15T12:23:09;14.30;99.90
65404;DHT22;52014;52.088;5.096;2023-04-15T12:25:35;14.40;99.90
65404;DHT22;52014;52.088;5.096;2023-04-15T12:28:00;14.50;99.90
65404;DHT22;52014;52.088;5.096;2023-04-15T12:30:26;14.50;99.90
65404;DHT22;52014;52.088;5.096;2023-04-15T12:32:51;14.40;99.90
65404;DHT22;52014;52.088;5.096;2023-04-15T12:35:16;14.40;99.90
65404;DHT22;52014;52.088;5.096;2023-04-15T12:37:43;14.30;99.90
65404;DHT22;52014;52.088;5.096;2023-04-15T12:40:09;14.40;99.90
65404;DHT22;52014;52.088;5.096;2023-04-15T12:42:35;14.30;99.90
65404;DHT22;52014;52.088;5.096;2023-04-15T12:45:00;14.30;99.90
65404;DHT22;52014;52.088;5.096;2023-04-15T12:47:26;14.30;99.90
65404;DHT22;52014;52.088;5.096;2023-04-15T12:49:52;14.20;99.90
65404;DHT22;52014;52.088;5.096;2023-04-15T12:52:17;14.40;99.90
65404;DHT22;52014;52.088;5.096;2023-04-15T12:54:43;14.40;99.90
65404;DHT22;52014;52.088;5.096;2023-04-15T12:57:08;14.30;99.90
65404;DHT22;52014;52.088;5.096;2023-04-15T12:59:34;14.30;99.90
65404;DHT22;52014;52.088;5.096;2023-04-15T13:02:00;14.40;99.90
65404;DHT22;52014;52.088;5.096;2023-04-15T13:04:26;14.40;99.90
65404;DHT22;52014;52.088;5.096;2023-04-15T13:06:54;14.20;99.90
65404;DHT22;52014;52.088;5.096;2023-04-15T13:09:20;14.20;99.90
65404;DHT22;52014;52.088;5.096;2023-04-15T13:11:45;14.20;99.90
65404;DHT22;52014;52.088;5.096;2023-04-15T13:14:11;14.00;99.90
65404;DHT22;52014;52.088;5.096;2023-04-15T13:16:37;13.90;99.90
65404;DHT22;52014;52.088;5.096;2023-04-15T13:19:02;13.90;99.90
65404;DHT22;52014;52.088;5.096;2023-04-15T13:21:28;13.80;99.90
65404;DHT22;52014;52.088;5.096;2023-04-15T13:23:53;13.90;99.90
65404;DHT22;52014;52.088;5.096;2023-04-15T13:26:19;14.00;99.90
65404;DHT22;52014;52.088;5.096;2023-04-15T13:28:44;14.10;99.90
65404;DHT22;52014;52.088;5.096;2023-04-15T13:31:10;13.90;99.90
65404;DHT22;52014;52.088;5.096;2023-04-15T13:33:36;13.90;99.90
65404;DHT22;52014;52.088;5.096;2023-04-15T13:36:01;13.90;99.90
65404;DHT22;52014;52.088;5.096;2023-04-15T13:38:27;13.90;99.90
65404;DHT22;52014;52.088;5.096;2023-04-15T13:40:52;13.80;99.90
65404;DHT22;52014;52.088;5.096;2023-04-15T13:43:18;13.80;99.90
65404;DHT22;52014;52.088;5.096;2023-04-15T13:45:43;13.70;99.90
65404;DHT22;52014;52.088;5.096;2023-04-15T13:48:09;13.70;99.90
65404;DHT22;52014;52.088;5.096;2023-04-15T13:50:34;13.70;99.90
65404;DHT22;52014;52.088;5.096;2023-04-15T13:53:00;13.80;99.90
65404;DHT22;52014;52.088;5.096;2023-04-15T13:55:25;13.80;99.90
65404;DHT22;52014;52.088;5.096;2023-04-15T13:57:51;13.80;99.90
65404;DHT22;52014;52.088;5.096;2023-04-15T14:00:16;13.80;99.90
65404;DHT22;52014;52.088;5.096;2023-04-15T14:02:42;13.90;99.90
65404;DHT22;52014;52.088;5.096;2023-04-15T14:05:07;13.90;99.90
65404;DHT22;52014;52.088;5.096;2023-04-15T14:07:33;13.90;99.90
65404;DHT22;52014;52.088;5.096;2023-04-15T14:09:59;13.90;99.90
65404;DHT22;52014;52.088;5.096;2023-04-15T14:12:24;13.90;99.90
65404;DHT22;52014;52.088;5.096;2023-04-15T14:14:50;13.80;99.90
65404;DHT22;52014;52.088;5.096;2023-04-15T14:17:15;13.80;99.90
65404;DHT22;52014;52.088;5.096;2023-04-15T14:19:40;13.80;99.90
65404;DHT22;52014;52.088;5.096;2023-04-15T14:22:06;13.70;99.90
65404;DHT22;52014;52.088;5.096;2023-04-15T14:24:31;13.60;99.90
65404;DHT22;52014;52.088;5.096;2023-04-15T14:26:57;13.50;99.90
65404;DHT22;52014;52.088;5.096;2023-04-15T14:29:22;13.40;99.90
65404;DHT22;52014;52.088;5.096;2023-04-15T14:31:48;13.50;99.90
65404;DHT22;52014;52.088;5.096;2023-04-15T14:34:14;13.50;99.90
65404;DHT22;52014;52.088;5.096;2023-04-15T14:36:40;13.60;99.90
65404;DHT22;52014;52.088;5.096;2023-04-15T14:39:06;13.60;99.90
65404;DHT22;52014;52.088;5.096;2023-04-15T14:41:32;13.70;99.90
65404;DHT22;52014;52.088;5.096;2023-04-15T14:43:57;13.70;99.90
65404;DHT22;52014;52.088;5.096;2023-04-15T14:46:23;13.70;99.90
65404;DHT22;52014;52.088;5.096;2023-04-15T14:48:49;13.60;99.90
65404;DHT22;52014;52.088;5.096;2023-04-15T14:51:15;13.50;99.90
65404;DHT22;52014;52.088;5.096;2023-04-15T14:53:40;13.60;99.90
65404;DHT22;52014;52.088;5.096;2023-04-15T14:56:06;13.50;99.90
65404;DHT22;52014;52.088;5.096;2023-04-15T14:58:32;13.40;99.90
65404;DHT22;52014;52.088;5.096;2023-04-15T15:00:57;13.30;99.90
65404;DHT22;52014;52.088;5.096;2023-04-15T15:03:23;13.30;99.90
65404;DHT22;52014;52.088;5.096;2023-04-15T15:05:48;13.30;99.90
65404;DHT22;52014;52.088;5.096;2023-04-15T15:08:14;13.20;99.90
65404;DHT22;52014;52.088;5.096;2023-04-15T15:10:39;12.90;99.90
65404;DHT22;52014;52.088;5.096;2023-04-15T15:13:05;12.80;99.90
65404;DHT22;52014;52.088;5.096;2023-04-15T15:15:31;12.70;99.90
65404;DHT22;52014;52.088;5.096;2023-04-15T15:17:57;12.90;99.90
65404;DHT22;52014;52.088;5.096;2023-04-15T15:20:23;12.80;99.90
65404;DHT22;52014;52.088;5.096;2023-04-15T15:22:48;12.80;99.90
65404;DHT22;52014;52.088;5.096;2023-04-15T15:25:14;12.70;99.90
65404;DHT22;52014;52.088;5.096;2023-04-15T15:27:39;13.00;99.90
65404;DHT22;52014;52.088;5.096;2023-04-15T15:30:05;13.10;99.90
65404;DHT22;52014;52.088;5.096;2023-04-15T15:32:31;13.20;99.90
65404;DHT22;52014;52.088;5.096;2023-04-15T15:34:56;13.10;99.90
65404;DHT22;52014;52.088;5.096;2023-04-15T15:37:22;13.20;99.90
65404;DHT22;52014;52.088;5.096;2023-04-15T15:39:47;13.10;99.90
65404;DHT22;52014;52.088;5.096;2023-04-15T15:42:15;12.90;99.90
65404;DHT22;52014;52.088;5.096;2023-04-15T15:44:40;12.80;99.90